sensor_id;sensor_type;location;lat;lon;timestamp;P1;durP1;ratioP1;P2;durP2;ratioP2
16890;SDS011;8562;52.246;20.966;2023-05-07T00:01:41;2.27;;;1.73;;
16890;SDS011;8562;52.246;20.966;2023-05-07T00:04:06;3.73;;;2.27;;
16890;SDS011;8562;52.246;20.966;2023-05-07T00:06:32;2.20;;;1.87;;
16890;SDS011;8562;52.246;20.966;2023-05-07T00:08:58;2.10;;;1.73;;
16890;SDS011;8562;52.246;20.966;2023-05-07T00:11:23;4.73;;;3.03;;
16890;SDS011;8562;52.246;20.966;2023-05-07T00:13:48;2.10;;;1.77;;
16890;SDS011;8562;52.246;20.966;2023-05-07T00:16:14;2.30;;;1.77;;
16890;SDS011;8562;52.246;20.966;2023-05-07T00:18:39;2.30;;;1.90;;
16890;SDS011;8562;52.246;20.966;2023-05-07T00:21:04;1.97;;;1.73;;
16890;SDS011;8562;52.246;20.966;2023-05-07T00:23:30;3.70;;;1.80;;
16890;SDS011;8562;52.246;20.966;2023-05-07T00:25:55;2.43;;;2.23;;
16890;SDS011;8562;52.246;20.966;2023-05-07T00:28:21;3.37;;;1.90;;
16890;SDS011;8562;52.246;20.966;2023-05-07T00:30:46;2.20;;;2.00;;
16890;SDS011;8562;52.246;20.966;2023-05-07T00:33:11;3.30;;;2.33;;
16890;SDS011;8562;52.246;20.966;2023-05-07T00:35:37;3.13;;;1.90;;
16890;SDS011;8562;52.246;20.966;2023-05-07T00:38:02;3.27;;;2.50;;
16890;SDS011;8562;52.246;20.966;2023-05-07T00:40:27;5.17;;;2.07;;
16890;SDS011;8562;52.246;20.966;2023-05-07T00:42:52;4.20;;;2.33;;
16890;SDS011;8562;52.246;20.966;2023-05-07T00:45:23;1.87;;;1.70;;
16890;SDS011;8562;52.246;20.966;2023-05-07T00:47:50;2.30;;;2.10;;
16890;SDS011;8562;52.246;20.966;2023-05-07T00:50:15;4.07;;;2.33;;
16890;SDS011;8562;52.246;20.966;2023-05-07T00:52:42;2.27;;;2.00;;
16890;SDS011;8562;52.246;20.966;2023-05-07T00:55:07;5.97;;;1.97;;
16890;SDS011;8562;52.246;20.966;2023-05-07T00:57:35;2.13;;;1.77;;
16890;SDS011;8562;52.246;20.966;2023-05-07T01:00:02;3.53;;;1.93;;
16890;SDS011;8562;52.246;20.966;2023-05-07T01:02:28;2.07;;;1.80;;
16890;SDS011;8562;52.246;20.966;2023-05-07T01:04:53;2.60;;;1.50;;
16890;SDS011;8562;52.246;20.966;2023-05-07T01:07:20;2.37;;;1.90;;
16890;SDS011;8562;52.246;20.966;2023-05-07T01:09:45;3.97;;;1.80;;
16890;SDS011;8562;52.246;20.966;2023-05-07T01:12:10;3.77;;;2.63;;
16890;SDS011;8562;52.246;20.966;2023-05-07T01:14:36;1.70;;;1.60;;
16890;SDS011;8562;52.246;20.966;2023-05-07T01:17:02;1.93;;;1.70;;
16890;SDS011;8562;52.246;20.966;2023-05-07T01:19:28;2.17;;;1.90;;
16890;SDS011;8562;52.246;20.966;2023-05-07T01:21:53;2.63;;;2.43;;
16890;SDS011;8562;52.246;20.966;2023-05-07T01:24:23;2.30;;;1.90;;
16890;SDS011;8562;52.246;20.966;2023-05-07T01:26:48;2.80;;;1.63;;
16890;SDS011;8562;52.246;20.966;2023-05-07T01:29:15;4.13;;;1.97;;
16890;SDS011;8562;52.246;20.966;2023-05-07T01:31:41;2.50;;;1.40;;
16890;SDS011;8562;52.246;20.966;2023-05-07T01:34:07;1.33;;;1.23;;
16890;SDS011;8562;52.246;20.966;2023-05-07T01:36:33;2.00;;;1.70;;
16890;SDS011;8562;52.246;20.966;2023-05-07T01:38:59;2.00;;;1.80;;
16890;SDS011;8562;52.246;20.966;2023-05-07T01:41:25;1.83;;;1.57;;
16890;SDS011;8562;52.246;20.966;2023-05-07T01:43:51;2.83;;;2.03;;
16890;SDS011;8562;52.246;20.966;2023-05-07T01:46:17;2.37;;;1.60;;
16890;SDS011;8562;52.246;20.966;2023-05-07T01:48:43;2.70;;;1.87;;
16890;SDS011;8562;52.246;20.966;2023-05-07T01:51:11;3.60;;;1.80;;
16890;SDS011;8562;52.246;20.966;2023-05-07T01:53:37;3.10;;;2.10;;
16890;SDS011;8562;52.246;20.966;2023-05-07T01:56:02;1.77;;;1.67;;
16890;SDS011;8562;52.246;20.966;2023-05-07T01:58:29;2.43;;;1.80;;
16890;SDS011;8562;52.246;20.966;2023-05-07T02:00:55;2.93;;;2.07;;
16890;SDS011;8562;52.246;20.966;2023-05-07T02:03:20;1.80;;;1.70;;
16890;SDS011;8562;52.246;20.966;2023-05-07T02:05:55;2.33;;;1.50;;
16890;SDS011;8562;52.246;20.966;2023-05-07T02:08:29;4.57;;;1.30;;
16890;SDS011;8562;52.246;20.966;2023-05-07T02:10:55;3.50;;;1.73;;
16890;SDS011;8562;52.246;20.966;2023-05-07T02:13:21;2.83;;;1.77;;
16890;SDS011;8562;52.246;20.966;2023-05-07T02:15:47;3.10;;;1.67;;
16890;SDS011;8562;52.246;20.966;2023-05-07T02:18:16;3.53;;;1.53;;
16890;SDS011;8562;52.246;20.966;2023-05-07T02:20:41;2.53;;;1.43;;
16890;SDS011;8562;52.246;20.966;2023-05-07T02:23:06;1.73;;;1.23;;
16890;SDS011;8562;52.246;20.966;2023-05-07T02:25:32;2.77;;;1.73;;
16890;SDS011;8562;52.246;20.966;2023-05-07T02:27:58;1.73;;;1.57;;
16890;SDS011;8562;52.246;20.966;2023-05-07T02:30:33;1.70;;;1.47;;
16890;SDS011;8562;52.246;20.966;2023-05-07T02:32:59;2.43;;;2.23;;
16890;SDS011;8562;52.246;20.966;2023-05-07T02:35:24;2.97;;;1.60;;
16890;SDS011;8562;52.246;20.966;2023-05-07T02:37:50;4.20;;;1.97;;
16890;SDS011;8562;52.246;20.966;2023-05-07T02:40:16;1.67;;;1.57;;
16890;SDS011;8562;52.246;20.966;2023-05-07T02:42:41;3.33;;;1.80;;
16890;SDS011;8562;52.246;20.966;2023-05-07T02:45:07;1.97;;;1.27;;
16890;SDS011;8562;52.246;20.966;2023-05-07T02:47:33;2.53;;;1.90;;
16890;SDS011;8562;52.246;20.966;2023-05-07T02:50:00;1.77;;;1.63;;
16890;SDS011;8562;52.246;20.966;2023-05-07T02:52:25;1.50;;;1.40;;
16890;SDS011;8562;52.246;20.966;2023-05-07T02:54:50;1.97;;;1.83;;
16890;SDS011;8562;52.246;20.966;2023-05-07T02:57:16;2.07;;;1.73;;
16890;SDS011;8562;52.246;20.966;2023-05-07T02:59:41;1.57;;;1.47;;
16890;SDS011;8562;52.246;20.966;2023-05-07T03:02:07;1.87;;;1.43;;
16890;SDS011;8562;52.246;20.966;2023-05-07T03:04:32;2.73;;;1.90;;
16890;SDS011;8562;52.246;20.966;2023-05-07T03:06:57;2.17;;;1.97;;
16890;SDS011;8562;52.246;20.966;2023-05-07T03:09:23;2.37;;;1.40;;
16890;SDS011;8562;52.246;20.966;2023-05-07T03:11:48;2.27;;;1.20;;
16890;SDS011;8562;52.246;20.966;2023-05-07T03:14:14;5.27;;;1.53;;
16890;SDS011;8562;52.246;20.966;2023-05-07T03:16:39;1.10;;;1.10;;
16890;SDS011;8562;52.246;20.966;2023-05-07T03:19:05;2.63;;;1.63;;
16890;SDS011;8562;52.246;20.966;2023-05-07T03:21:30;2.83;;;1.57;;
16890;SDS011;8562;52.246;20.966;2023-05-07T03:23:58;2.97;;;2.20;;
16890;SDS011;8562;52.246;20.966;2023-05-07T03:26:24;2.17;;;1.33;;
16890;SDS011;8562;52.246;20.966;2023-05-07T03:28:50;4.40;;;1.73;;
16890;SDS011;8562;52.246;20.966;2023-05-07T03:31:16;2.70;;;1.70;;
16890;SDS011;8562;52.246;20.966;2023-05-07T03:33:55;2.27;;;2.00;;
16890;SDS011;8562;52.246;20.966;2023-05-07T03:36:20;1.50;;;1.40;;
16890;SDS011;8562;52.246;20.966;2023-05-07T03:38:46;2.03;;;1.23;;
16890;SDS011;8562;52.246;20.966;2023-05-07T03:41:11;1.37;;;1.27;;
16890;SDS011;8562;52.246;20.966;2023-05-07T03:43:37;3.17;;;2.20;;
16890;SDS011;8562;52.246;20.966;2023-05-07T03:46:06;2.97;;;1.37;;
16890;SDS011;8562;52.246;20.966;2023-05-07T03:48:32;2.33;;;1.80;;
16890;SDS011;8562;52.246;20.966;2023-05-07T03:50:58;3.73;;;1.43;;
16890;SDS011;8562;52.246;20.966;2023-05-07T03:53:27;2.60;;;1.53;;
16890;SDS011;8562;52.246;20.966;2023-05-07T03:55:53;2.93;;;1.73;;
16890;SDS011;8562;52.246;20.966;2023-05-07T03:58:19;2.83;;;1.87;;
16890;SDS011;8562;52.246;20.966;2023-05-07T04:00:45;4.20;;;1.43;;
16890;SDS011;8562;52.246;20.966;2023-05-07T04:03:25;2.47;;;1.70;;
16890;SDS011;8562;52.246;20.966;2023-05-07T04:05:50;4.80;;;1.37;;
16890;SDS011;8562;52.246;20.966;2023-05-07T04:08:16;1.83;;;1.43;;
16890;SDS011;8562;52.246;20.966;2023-05-07T04:10:46;3.20;;;1.77;;
16890;SDS011;8562;52.246;20.966;2023-05-07T04:13:12;2.60;;;1.70;;
16890;SDS011;8562;52.246;20.966;2023-05-07T04:15:37;1.63;;;1.53;;
16890;SDS011;8562;52.246;20.966;2023-05-07T04:18:06;1.87;;;1.40;;
16890;SDS011;8562;52.246;20.966;2023-05-07T04:20:33;1.83;;;1.43;;
16890;SDS011;8562;52.246;20.966;2023-05-07T04:23:01;1.80;;;1.30;;
16890;SDS011;8562;52.246;20.966;2023-05-07T04:25:27;1.83;;;1.60;;
16890;SDS011;8562;52.246;20.966;2023-05-07T04:27:57;1.60;;;1.47;;
16890;SDS011;8562;52.246;20.966;2023-05-07T04:30:25;1.67;;;1.40;;
16890;SDS011;8562;52.246;20.966;2023-05-07T04:32:51;3.33;;;1.27;;
16890;SDS011;8562;52.246;20.966;2023-05-07T04:35:17;1.77;;;1.67;;
16890;SDS011;8562;52.246;20.966;2023-05-07T04:37:42;1.30;;;1.20;;
16890;SDS011;8562;52.246;20.966;2023-05-07T04:40:08;2.27;;;1.90;;
16890;SDS011;8562;52.246;20.966;2023-05-07T04:42:34;1.40;;;1.30;;
16890;SDS011;8562;52.246;20.966;2023-05-07T04:45:01;1.67;;;1.53;;
16890;SDS011;8562;52.246;20.966;2023-05-07T04:47:29;2.97;;;1.47;;
16890;SDS011;8562;52.246;20.966;2023-05-07T04:49:55;3.13;;;1.80;;
16890;SDS011;8562;52.246;20.966;2023-05-07T04:52:20;5.87;;;1.70;;
16890;SDS011;8562;52.246;20.966;2023-05-07T04:54:45;2.00;;;1.90;;
16890;SDS011;8562;52.246;20.966;2023-05-07T04:57:11;1.83;;;1.30;;
16890;SDS011;8562;52.246;20.966;2023-05-07T04:59:36;1.33;;;1.23;;
16890;SDS011;8562;52.246;20.966;2023-05-07T05:02:02;2.13;;;1.70;;
16890;SDS011;8562;52.246;20.966;2023-05-07T05:04:30;1.37;;;1.27;;
16890;SDS011;8562;52.246;20.966;2023-05-07T05:06:56;1.83;;;1.60;;
16890;SDS011;8562;52.246;20.966;2023-05-07T05:09:21;1.90;;;1.50;;
16890;SDS011;8562;52.246;20.966;2023-05-07T05:11:46;2.30;;;1.53;;
16890;SDS011;8562;52.246;20.966;2023-05-07T05:14:12;2.33;;;1.67;;
16890;SDS011;8562;52.246;20.966;2023-05-07T05:16:37;1.60;;;1.50;;
16890;SDS011;8562;52.246;20.966;2023-05-07T05:19:03;1.83;;;1.30;;
16890;SDS011;8562;52.246;20.966;2023-05-07T05:21:31;2.70;;;1.40;;
16890;SDS011;8562;52.246;20.966;2023-05-07T05:24:03;1.53;;;1.43;;
16890;SDS011;8562;52.246;20.966;2023-05-07T05:26:28;1.80;;;1.40;;
16890;SDS011;8562;52.246;20.966;2023-05-07T05:28:53;1.93;;;1.50;;
16890;SDS011;8562;52.246;20.966;2023-05-07T05:31:22;1.93;;;1.50;;
16890;SDS011;8562;52.246;20.966;2023-05-07T05:33:48;1.47;;;1.07;;
16890;SDS011;8562;52.246;20.966;2023-05-07T05:36:13;2.67;;;2.00;;
16890;SDS011;8562;52.246;20.966;2023-05-07T05:38:41;1.33;;;1.13;;
16890;SDS011;8562;52.246;20.966;2023-05-07T05:41:08;2.03;;;1.20;;
16890;SDS011;8562;52.246;20.966;2023-05-07T05:43:34;2.00;;;1.80;;
16890;SDS011;8562;52.246;20.966;2023-05-07T05:45:59;2.00;;;1.70;;
16890;SDS011;8562;52.246;20.966;2023-05-07T05:48:26;1.67;;;1.57;;
16890;SDS011;8562;52.246;20.966;2023-05-07T05:50:51;1.63;;;1.47;;
16890;SDS011;8562;52.246;20.966;2023-05-07T05:53:17;1.90;;;1.67;;
16890;SDS011;8562;52.246;20.966;2023-05-07T05:55:43;1.93;;;1.80;;
16890;SDS011;8562;52.246;20.966;2023-05-07T05:58:09;1.20;;;1.10;;
16890;SDS011;8562;52.246;20.966;2023-05-07T06:00:38;2.27;;;1.53;;
16890;SDS011;8562;52.246;20.966;2023-05-07T06:03:05;1.23;;;0.97;;
16890;SDS011;8562;52.246;20.966;2023-05-07T06:05:31;2.77;;;1.77;;
16890;SDS011;8562;52.246;20.966;2023-05-07T06:07:57;1.90;;;1.70;;
16890;SDS011;8562;52.246;20.966;2023-05-07T06:10:22;2.13;;;1.37;;
16890;SDS011;8562;52.246;20.966;2023-05-07T06:12:49;1.47;;;1.20;;
16890;SDS011;8562;52.246;20.966;2023-05-07T06:15:15;0.90;;;0.90;;
16890;SDS011;8562;52.246;20.966;2023-05-07T06:17:41;1.83;;;1.40;;
16890;SDS011;8562;52.246;20.966;2023-05-07T06:20:09;2.13;;;1.47;;
16890;SDS011;8562;52.246;20.966;2023-05-07T06:22:35;1.20;;;0.93;;
16890;SDS011;8562;52.246;20.966;2023-05-07T06:25:00;3.17;;;1.50;;
16890;SDS011;8562;52.246;20.966;2023-05-07T06:27:26;1.23;;;1.13;;
16890;SDS011;8562;52.246;20.966;2023-05-07T06:29:53;1.20;;;1.10;;
16890;SDS011;8562;52.246;20.966;2023-05-07T06:32:19;3.07;;;1.63;;
16890;SDS011;8562;52.246;20.966;2023-05-07T06:34:45;0.83;;;0.80;;
16890;SDS011;8562;52.246;20.966;2023-05-07T06:37:11;1.37;;;1.27;;
16890;SDS011;8562;52.246;20.966;2023-05-07T06:39:56;1.37;;;1.17;;
16890;SDS011;8562;52.246;20.966;2023-05-07T06:42:21;1.43;;;1.10;;
16890;SDS011;8562;52.246;20.966;2023-05-07T06:44:48;1.90;;;1.40;;
16890;SDS011;8562;52.246;20.966;2023-05-07T06:47:15;1.10;;;1.03;;
16890;SDS011;8562;52.246;20.966;2023-05-07T06:49:41;1.97;;;1.40;;
16890;SDS011;8562;52.246;20.966;2023-05-07T06:52:06;1.03;;;0.90;;
16890;SDS011;8562;52.246;20.966;2023-05-07T06:54:32;3.60;;;1.83;;
16890;SDS011;8562;52.246;20.966;2023-05-07T06:56:58;4.27;;;1.40;;
16890;SDS011;8562;52.246;20.966;2023-05-07T06:59:25;3.20;;;1.70;;
16890;SDS011;8562;52.246;20.966;2023-05-07T07:01:51;1.97;;;1.27;;
16890;SDS011;8562;52.246;20.966;2023-05-07T07:04:16;2.53;;;1.60;;
16890;SDS011;8562;52.246;20.966;2023-05-07T07:06:45;1.60;;;1.50;;
16890;SDS011;8562;52.246;20.966;2023-05-07T07:09:12;1.27;;;1.07;;
16890;SDS011;8562;52.246;20.966;2023-05-07T07:11:37;1.93;;;1.17;;
16890;SDS011;8562;52.246;20.966;2023-05-07T07:14:04;1.63;;;1.03;;
16890;SDS011;8562;52.246;20.966;2023-05-07T07:16:33;1.80;;;1.63;;
16890;SDS011;8562;52.246;20.966;2023-05-07T07:18:58;1.57;;;1.00;;
16890;SDS011;8562;52.246;20.966;2023-05-07T07:21:23;1.70;;;1.50;;
16890;SDS011;8562;52.246;20.966;2023-05-07T07:23:49;1.40;;;1.30;;
16890;SDS011;8562;52.246;20.966;2023-05-07T07:26:18;2.80;;;1.20;;
16890;SDS011;8562;52.246;20.966;2023-05-07T07:28:44;1.97;;;1.50;;
16890;SDS011;8562;52.246;20.966;2023-05-07T07:31:09;1.93;;;1.10;;
16890;SDS011;8562;52.246;20.966;2023-05-07T07:33:35;2.93;;;1.63;;
16890;SDS011;8562;52.246;20.966;2023-05-07T07:36:01;3.13;;;1.70;;
16890;SDS011;8562;52.246;20.966;2023-05-07T07:38:26;2.83;;;1.60;;
16890;SDS011;8562;52.246;20.966;2023-05-07T07:40:51;1.07;;;1.03;;
16890;SDS011;8562;52.246;20.966;2023-05-07T07:43:17;3.10;;;1.63;;
16890;SDS011;8562;52.246;20.966;2023-05-07T07:45:43;2.37;;;1.63;;
16890;SDS011;8562;52.246;20.966;2023-05-07T07:48:09;4.07;;;1.37;;
16890;SDS011;8562;52.246;20.966;2023-05-07T07:50:36;1.80;;;1.57;;
16890;SDS011;8562;52.246;20.966;2023-05-07T07:53:02;2.77;;;1.77;;
16890;SDS011;8562;52.246;20.966;2023-05-07T07:55:28;1.77;;;1.07;;
16890;SDS011;8562;52.246;20.966;2023-05-07T07:57:54;1.70;;;1.00;;
16890;SDS011;8562;52.246;20.966;2023-05-07T08:00:21;1.50;;;1.40;;
16890;SDS011;8562;52.246;20.966;2023-05-07T08:02:51;1.40;;;1.30;;
16890;SDS011;8562;52.246;20.966;2023-05-07T08:05:22;1.60;;;1.33;;
16890;SDS011;8562;52.246;20.966;2023-05-07T08:07:48;1.70;;;1.60;;
16890;SDS011;8562;52.246;20.966;2023-05-07T08:10:21;1.67;;;1.40;;
16890;SDS011;8562;52.246;20.966;2023-05-07T08:12:49;2.13;;;1.47;;
16890;SDS011;8562;52.246;20.966;2023-05-07T08:15:14;1.63;;;1.53;;
16890;SDS011;8562;52.246;20.966;2023-05-07T08:17:40;1.40;;;1.27;;
16890;SDS011;8562;52.246;20.966;2023-05-07T08:20:05;2.03;;;1.47;;
16890;SDS011;8562;52.246;20.966;2023-05-07T08:22:31;0.83;;;0.83;;
16890;SDS011;8562;52.246;20.966;2023-05-07T08:24:57;1.60;;;1.50;;
16890;SDS011;8562;52.246;20.966;2023-05-07T08:27:22;1.80;;;1.47;;
16890;SDS011;8562;52.246;20.966;2023-05-07T08:29:48;1.33;;;1.00;;
16890;SDS011;8562;52.246;20.966;2023-05-07T08:32:15;1.27;;;1.10;;
16890;SDS011;8562;52.246;20.966;2023-05-07T08:34:41;1.07;;;0.93;;
16890;SDS011;8562;52.246;20.966;2023-05-07T08:37:06;1.27;;;1.17;;
16890;SDS011;8562;52.246;20.966;2023-05-07T08:39:32;1.27;;;1.17;;
16890;SDS011;8562;52.246;20.966;2023-05-07T08:41:58;3.53;;;1.13;;
16890;SDS011;8562;52.246;20.966;2023-05-07T08:44:26;1.53;;;1.33;;
16890;SDS011;8562;52.246;20.966;2023-05-07T08:46:53;1.77;;;1.40;;
16890;SDS011;8562;52.246;20.966;2023-05-07T08:49:20;1.20;;;1.00;;
16890;SDS011;8562;52.246;20.966;2023-05-07T08:51:45;1.30;;;1.20;;
16890;SDS011;8562;52.246;20.966;2023-05-07T08:54:15;3.47;;;1.30;;
16890;SDS011;8562;52.246;20.966;2023-05-07T08:56:41;1.27;;;1.13;;
16890;SDS011;8562;52.246;20.966;2023-05-07T08:59:06;1.60;;;1.03;;
16890;SDS011;8562;52.246;20.966;2023-05-07T09:01:32;1.70;;;1.00;;
16890;SDS011;8562;52.246;20.966;2023-05-07T09:03:57;1.27;;;1.17;;
16890;SDS011;8562;52.246;20.966;2023-05-07T09:06:24;1.63;;;0.70;;
16890;SDS011;8562;52.246;20.966;2023-05-07T09:08:51;2.00;;;1.30;;
16890;SDS011;8562;52.246;20.966;2023-05-07T09:11:19;0.50;;;0.50;;
16890;SDS011;8562;52.246;20.966;2023-05-07T09:13:46;1.10;;;1.00;;
16890;SDS011;8562;52.246;20.966;2023-05-07T09:16:12;2.20;;;1.37;;
16890;SDS011;8562;52.246;20.966;2023-05-07T09:18:42;1.00;;;0.90;;
16890;SDS011;8562;52.246;20.966;2023-05-07T09:21:19;0.70;;;0.60;;
16890;SDS011;8562;52.246;20.966;2023-05-07T09:23:53;1.20;;;1.00;;
16890;SDS011;8562;52.246;20.966;2023-05-07T09:26:21;1.03;;;1.00;;
16890;SDS011;8562;52.246;20.966;2023-05-07T09:28:47;0.73;;;0.73;;
16890;SDS011;8562;52.246;20.966;2023-05-07T09:31:13;1.40;;;0.80;;
16890;SDS011;8562;52.246;20.966;2023-05-07T09:33:39;1.17;;;0.83;;
16890;SDS011;8562;52.246;20.966;2023-05-07T09:36:08;0.87;;;0.87;;
16890;SDS011;8562;52.246;20.966;2023-05-07T09:38:36;1.10;;;0.70;;
16890;SDS011;8562;52.246;20.966;2023-05-07T09:41:04;1.03;;;0.90;;
16890;SDS011;8562;52.246;20.966;2023-05-07T09:43:32;3.27;;;1.57;;
16890;SDS011;8562;52.246;20.966;2023-05-07T09:46:12;1.70;;;1.10;;
16890;SDS011;8562;52.246;20.966;2023-05-07T09:48:41;1.60;;;0.60;;
16890;SDS011;8562;52.246;20.966;2023-05-07T09:51:28;2.27;;;1.00;;
16890;SDS011;8562;52.246;20.966;2023-05-07T09:53:56;1.47;;;1.00;;
16890;SDS011;8562;52.246;20.966;2023-05-07T09:56:22;2.70;;;1.30;;
16890;SDS011;8562;52.246;20.966;2023-05-07T09:58:48;1.23;;;1.17;;
16890;SDS011;8562;52.246;20.966;2023-05-07T10:01:15;2.33;;;1.20;;
16890;SDS011;8562;52.246;20.966;2023-05-07T10:03:42;1.17;;;0.70;;
16890;SDS011;8562;52.246;20.966;2023-05-07T10:06:09;0.87;;;0.87;;
16890;SDS011;8562;52.246;20.966;2023-05-07T10:08:36;2.97;;;1.20;;
16890;SDS011;8562;52.246;20.966;2023-05-07T10:11:03;1.27;;;1.17;;
16890;SDS011;8562;52.246;20.966;2023-05-07T10:13:29;3.03;;;1.20;;
16890;SDS011;8562;52.246;20.966;2023-05-07T10:15:57;0.83;;;0.83;;
16890;SDS011;8562;52.246;20.966;2023-05-07T10:18:25;0.60;;;0.60;;
16890;SDS011;8562;52.246;20.966;2023-05-07T10:21:02;1.60;;;0.90;;
16890;SDS011;8562;52.246;20.966;2023-05-07T10:23:29;1.17;;;1.10;;
16890;SDS011;8562;52.246;20.966;2023-05-07T10:25:58;1.50;;;0.80;;
16890;SDS011;8562;52.246;20.966;2023-05-07T10:28:24;1.07;;;0.97;;
16890;SDS011;8562;52.246;20.966;2023-05-07T10:33:23;0.80;;;0.80;;
16890;SDS011;8562;52.246;20.966;2023-05-07T10:35:51;2.37;;;0.60;;
16890;SDS011;8562;52.246;20.966;2023-05-07T10:38:16;2.40;;;1.10;;
16890;SDS011;8562;52.246;20.966;2023-05-07T10:40:44;1.53;;;0.70;;
16890;SDS011;8562;52.246;20.966;2023-05-07T10:43:09;2.87;;;1.17;;
16890;SDS011;8562;52.246;20.966;2023-05-07T10:48:30;0.50;;;0.50;;
16890;SDS011;8562;52.246;20.966;2023-05-07T10:51:39;2.20;;;1.17;;
16890;SDS011;8562;52.246;20.966;2023-05-07T10:56:34;1.20;;;1.10;;
16890;SDS011;8562;52.246;20.966;2023-05-07T11:01:58;0.97;;;0.80;;
16890;SDS011;8562;52.246;20.966;2023-05-07T11:04:31;0.97;;;0.90;;
16890;SDS011;8562;52.246;20.966;2023-05-07T11:07:27;0.77;;;0.77;;
16890;SDS011;8562;52.246;20.966;2023-05-07T11:09:57;1.77;;;1.20;;
16890;SDS011;8562;52.246;20.966;2023-05-07T11:15:06;0.80;;;0.80;;
16890;SDS011;8562;52.246;20.966;2023-05-07T11:17:35;0.83;;;0.83;;
16890;SDS011;8562;52.246;20.966;2023-05-07T11:20:17;2.20;;;0.87;;
16890;SDS011;8562;52.246;20.966;2023-05-07T11:22:47;0.83;;;0.60;;
16890;SDS011;8562;52.246;20.966;2023-05-07T11:25:26;1.60;;;0.90;;
16890;SDS011;8562;52.246;20.966;2023-05-07T11:28:08;1.20;;;0.93;;
16890;SDS011;8562;52.246;20.966;2023-05-07T11:30:41;1.23;;;0.80;;
16890;SDS011;8562;52.246;20.966;2023-05-07T11:33:09;1.47;;;0.93;;
16890;SDS011;8562;52.246;20.966;2023-05-07T11:35:34;1.00;;;0.80;;
16890;SDS011;8562;52.246;20.966;2023-05-07T11:38:00;0.60;;;0.60;;
16890;SDS011;8562;52.246;20.966;2023-05-07T11:40:26;1.20;;;0.80;;
16890;SDS011;8562;52.246;20.966;2023-05-07T11:42:53;0.93;;;0.80;;
16890;SDS011;8562;52.246;20.966;2023-05-07T11:45:25;0.43;;;0.43;;
16890;SDS011;8562;52.246;20.966;2023-05-07T11:47:50;0.80;;;0.63;;
16890;SDS011;8562;52.246;20.966;2023-05-07T11:50:15;2.00;;;0.90;;
16890;SDS011;8562;52.246;20.966;2023-05-07T11:52:49;1.53;;;0.67;;
16890;SDS011;8562;52.246;20.966;2023-05-07T11:55:15;0.80;;;0.80;;
16890;SDS011;8562;52.246;20.966;2023-05-07T11:57:43;1.00;;;0.90;;
16890;SDS011;8562;52.246;20.966;2023-05-07T12:00:08;1.07;;;0.87;;
16890;SDS011;8562;52.246;20.966;2023-05-07T12:02:40;1.40;;;1.00;;
16890;SDS011;8562;52.246;20.966;2023-05-07T12:05:06;1.53;;;1.10;;
16890;SDS011;8562;52.246;20.966;2023-05-07T12:07:33;0.97;;;0.97;;
16890;SDS011;8562;52.246;20.966;2023-05-07T12:09:58;1.87;;;0.90;;
16890;SDS011;8562;52.246;20.966;2023-05-07T12:12:24;1.90;;;1.10;;
16890;SDS011;8562;52.246;20.966;2023-05-07T12:14:49;1.70;;;1.20;;
16890;SDS011;8562;52.246;20.966;2023-05-07T12:17:14;2.17;;;1.13;;
16890;SDS011;8562;52.246;20.966;2023-05-07T12:19:40;1.33;;;0.93;;
16890;SDS011;8562;52.246;20.966;2023-05-07T12:22:07;0.50;;;0.50;;
16890;SDS011;8562;52.246;20.966;2023-05-07T12:24:48;1.33;;;0.80;;
16890;SDS011;8562;52.246;20.966;2023-05-07T12:27:14;1.33;;;0.80;;
16890;SDS011;8562;52.246;20.966;2023-05-07T12:29:43;1.63;;;0.47;;
16890;SDS011;8562;52.246;20.966;2023-05-07T12:32:18;0.73;;;0.70;;
16890;SDS011;8562;52.246;20.966;2023-05-07T12:34:43;1.73;;;0.80;;
16890;SDS011;8562;52.246;20.966;2023-05-07T12:37:09;1.60;;;0.87;;
16890;SDS011;8562;52.246;20.966;2023-05-07T12:39:35;1.20;;;0.70;;
16890;SDS011;8562;52.246;20.966;2023-05-07T12:42:00;0.50;;;0.50;;
16890;SDS011;8562;52.246;20.966;2023-05-07T12:44:30;0.80;;;0.80;;
16890;SDS011;8562;52.246;20.966;2023-05-07T12:46:56;0.53;;;0.53;;
16890;SDS011;8562;52.246;20.966;2023-05-07T12:49:22;0.80;;;0.80;;
16890;SDS011;8562;52.246;20.966;2023-05-07T12:51:47;1.00;;;0.90;;
16890;SDS011;8562;52.246;20.966;2023-05-07T12:54:13;1.27;;;1.10;;
16890;SDS011;8562;52.246;20.966;2023-05-07T12:56:39;2.40;;;0.90;;
16890;SDS011;8562;52.246;20.966;2023-05-07T12:59:04;1.13;;;0.80;;
16890;SDS011;8562;52.246;20.966;2023-05-07T13:01:30;6.47;;;1.30;;
16890;SDS011;8562;52.246;20.966;2023-05-07T13:03:58;1.47;;;0.80;;
16890;SDS011;8562;52.246;20.966;2023-05-07T13:06:25;1.00;;;0.70;;
16890;SDS011;8562;52.246;20.966;2023-05-07T13:08:51;1.07;;;0.77;;
16890;SDS011;8562;52.246;20.966;2023-05-07T13:11:16;1.07;;;0.50;;
16890;SDS011;8562;52.246;20.966;2023-05-07T13:13:41;0.70;;;0.70;;
16890;SDS011;8562;52.246;20.966;2023-05-07T13:16:08;0.57;;;0.57;;
16890;SDS011;8562;52.246;20.966;2023-05-07T13:18:34;0.67;;;0.50;;
16890;SDS011;8562;52.246;20.966;2023-05-07T13:20:59;2.30;;;0.90;;
16890;SDS011;8562;52.246;20.966;2023-05-07T13:23:25;2.23;;;0.80;;
16890;SDS011;8562;52.246;20.966;2023-05-07T13:25:51;0.90;;;0.70;;
16890;SDS011;8562;52.246;20.966;2023-05-07T13:28:18;0.63;;;0.63;;
16890;SDS011;8562;52.246;20.966;2023-05-07T13:30:45;0.73;;;0.73;;
16890;SDS011;8562;52.246;20.966;2023-05-07T13:33:10;0.67;;;0.60;;
16890;SDS011;8562;52.246;20.966;2023-05-07T13:35:35;1.33;;;0.93;;
16890;SDS011;8562;52.246;20.966;2023-05-07T13:38:01;0.40;;;0.40;;
16890;SDS011;8562;52.246;20.966;2023-05-07T13:40:26;1.37;;;0.67;;
16890;SDS011;8562;52.246;20.966;2023-05-07T13:42:53;1.23;;;1.03;;
16890;SDS011;8562;52.246;20.966;2023-05-07T13:45:18;1.43;;;1.00;;
16890;SDS011;8562;52.246;20.966;2023-05-07T13:47:44;0.80;;;0.70;;
16890;SDS011;8562;52.246;20.966;2023-05-07T13:50:09;0.63;;;0.63;;
16890;SDS011;8562;52.246;20.966;2023-05-07T13:52:36;2.70;;;0.90;;
16890;SDS011;8562;52.246;20.966;2023-05-07T13:55:01;0.93;;;0.70;;
16890;SDS011;8562;52.246;20.966;2023-05-07T13:57:27;1.13;;;0.83;;
16890;SDS011;8562;52.246;20.966;2023-05-07T13:59:52;1.93;;;1.03;;
16890;SDS011;8562;52.246;20.966;2023-05-07T14:02:17;4.73;;;1.00;;
16890;SDS011;8562;52.246;20.966;2023-05-07T14:04:43;0.63;;;0.50;;
16890;SDS011;8562;52.246;20.966;2023-05-07T14:07:09;2.97;;;0.93;;
16890;SDS011;8562;52.246;20.966;2023-05-07T14:09:35;0.67;;;0.53;;
16890;SDS011;8562;52.246;20.966;2023-05-07T14:12:00;0.97;;;0.90;;
16890;SDS011;8562;52.246;20.966;2023-05-07T14:14:26;5.07;;;0.90;;
16890;SDS011;8562;52.246;20.966;2023-05-07T14:16:51;2.57;;;1.17;;
16890;SDS011;8562;52.246;20.966;2023-05-07T14:19:17;0.53;;;0.53;;
16890;SDS011;8562;52.246;20.966;2023-05-07T14:21:42;1.00;;;1.00;;
16890;SDS011;8562;52.246;20.966;2023-05-07T14:24:07;2.33;;;1.10;;
16890;SDS011;8562;52.246;20.966;2023-05-07T14:26:36;0.67;;;0.67;;
16890;SDS011;8562;52.246;20.966;2023-05-07T14:29:01;1.43;;;1.30;;
16890;SDS011;8562;52.246;20.966;2023-05-07T14:31:27;3.83;;;0.90;;
16890;SDS011;8562;52.246;20.966;2023-05-07T14:33:52;1.00;;;0.80;;
16890;SDS011;8562;52.246;20.966;2023-05-07T14:36:18;1.30;;;1.20;;
16890;SDS011;8562;52.246;20.966;2023-05-07T14:38:48;1.50;;;0.80;;
16890;SDS011;8562;52.246;20.966;2023-05-07T14:41:13;1.13;;;0.70;;
16890;SDS011;8562;52.246;20.966;2023-05-07T14:43:38;0.80;;;0.80;;
16890;SDS011;8562;52.246;20.966;2023-05-07T14:46:03;1.10;;;1.00;;
16890;SDS011;8562;52.246;20.966;2023-05-07T14:48:29;1.73;;;1.20;;
16890;SDS011;8562;52.246;20.966;2023-05-07T14:50:54;1.23;;;1.07;;
16890;SDS011;8562;52.246;20.966;2023-05-07T14:53:19;0.97;;;0.90;;
16890;SDS011;8562;52.246;20.966;2023-05-07T14:55:45;2.30;;;1.10;;
16890;SDS011;8562;52.246;20.966;2023-05-07T14:58:10;0.70;;;0.67;;
16890;SDS011;8562;52.246;20.966;2023-05-07T15:00:36;0.90;;;0.90;;